Time;durP1;ratioP1;P1;durP2;ratioP2;P2;SDS_P1;SDS_P2;PMS_P1;PMS_P2;Temp;Humidity;BMP_temperature;BMP_pressure;BME280_temperature;BME280_humidity;BME280_pressure;Samples;Min_cycle;Max_cycle;Signal;HPM_P1;HPM_P2
2021/07/05 00:01:08;;;;;;;8.07;7.17;;;;;;;24.51;44.96;93945.39;828519;71;28690;-75
2021/07/05 00:16:16;;;;;;;8.63;7.90;;;;;;;24.42;45.93;93947.72;827521;71;31675;-77
2021/07/05 00:31:15;;;;;;;8.57;7.63;;;;;;;24.33;45.61;93921.30;827724;71;32738;-77
2021/07/05 00:46:18;;;;;;;8.93;8.00;;;;;;;24.18;45.69;93902.59;827684;71;33172;-77
2021/07/05 01:01:08;;;;;;;9.20;8.40;;;;;;;24.10;45.80;93909.71;828424;71;29701;-77
2021/07/05 01:16:09;;;;;;;9.00;8.20;;;;;;;24.15;46.32;93916.03;828248;71;30273;-76
2021/07/05 01:31:09;;;;;;;9.40;8.60;;;;;;;24.15;46.02;93912.77;828428;71;30231;-76
2021/07/05 01:46:15;;;;;;;10.63;8.80;;;;;;;24.05;46.25;93906.08;827532;71;32778;-78
2021/07/05 02:01:08;;;;;;;8.83;8.03;;;;;;;24.06;46.34;93902.27;828337;71;30258;-76
2021/07/05 02:16:09;;;;;;;8.57;7.90;;;;;;;24.00;46.51;93917.39;829631;71;30293;-77
2021/07/05 02:31:09;;;;;;;9.00;8.20;;;;;;;23.92;46.45;93895.02;835498;71;29700;-76
2021/07/05 02:46:15;;;;;;;9.20;8.30;;;;;;;23.88;46.33;93903.65;827458;71;32692;-79
2021/07/05 03:16:16;;;;;;;10.23;9.17;;;;;;;23.73;46.82;93916.30;834011;71;32755;-75
2021/07/05 03:31:09;;;;;;;10.20;9.30;;;;;;;24.04;46.30;93914.70;828352;71;30356;-78
2021/07/05 03:46:19;;;;;;;9.43;8.53;;;;;;;24.57;45.31;93896.88;827583;71;32667;-76
2021/07/05 04:01:08;;;;;;;9.73;8.90;;;;;;;24.64;44.93;93910.27;828366;71;29767;-76
2021/07/05 04:16:14;;;;;;;9.77;8.87;;;;;;;24.32;46.14;93902.36;828384;71;32742;-81
2021/07/05 04:31:09;;;;;;;9.47;8.57;;;;;;;23.43;49.74;93884.58;829790;71;30380;-80
2021/07/05 04:46:11;;;;;;;14.20;12.90;;;;;;;23.46;50.26;93887.81;828780;71;31476;-80
2021/07/05 05:01:08;;;;;;;9.80;9.00;;;;;;;22.53;52.34;93906.66;828691;71;29804;-82
2021/07/05 05:16:16;;;;;;;10.07;9.07;;;;;;;23.72;49.29;93912.86;827811;71;32771;-82
2021/07/05 05:31:15;;;;;;;9.30;8.60;;;;;;;23.99;48.32;93899.03;827702;71;33208;-80
2021/07/05 05:46:15;;;;;;;10.10;9.30;;;;;;;25.17;45.98;93890.94;828323;71;30707;-81
2021/07/05 06:01:09;;;;;;;9.80;9.00;;;;;;;24.89;45.48;93897.27;816744;71;30356;-82
2021/07/05 06:16:35;;;;;;;10.17;9.27;;;;;;;25.24;45.92;93900.29;794701;74;32859;-78
2021/07/05 06:31:15;;;;;;;10.60;9.57;;;;;;;26.44;43.04;93864.30;834026;71;32678;-78
2021/07/05 06:46:17;;;;;;;10.50;9.47;;;;;;;27.03;40.84;93857.14;835533;71;31743;-80
2021/07/05 07:01:15;;;;;;;11.47;10.47;;;;;;;27.01;40.87;93855.45;834009;71;31793;-76
2021/07/05 07:16:10;;;;;;;10.80;9.90;;;;;;;26.18;43.25;93855.81;829802;71;29319;-77
2021/07/05 07:31:23;;;;;;;10.20;9.37;;;;;;;;;;834599;71;31807;-78
2021/07/05 07:46:13;;;;;;;10.80;9.80;;;;;;;27.74;40.44;93842.30;828207;71;32100;-79
2021/07/05 08:01:14;;;;;;;11.33;10.23;;;;;;;27.70;40.61;93839.66;834673;71;31819;-80
2021/07/05 08:16:08;;;;;;;13.00;11.70;;;;;;;;;;834388;71;29245;-77
2021/07/05 08:31:14;;;;;;;12.20;11.10;;;;;;;28.34;40.00;93820.09;827750;71;31832;-77
2021/07/05 08:46:10;;;;;;;10.80;9.80;;;;;;;29.31;38.86;93809.03;828499;71;29332;-80
2021/07/05 09:16:08;;;;;;;10.20;9.40;;;;;;;30.53;37.22;93780.72;834283;71;28829;-82
2021/07/05 09:31:15;;;;;;;7.77;7.17;;;;;;;31.53;34.14;93779.47;834051;71;31713;-82
2021/07/05 09:46:12;;;;;;;7.70;7.10;;;;;;;32.48;32.37;93759.94;828382;71;29199;-80
2021/07/05 10:01:36;;;;;;;6.90;6.30;;;;;;;33.31;31.07;93750.05;827679;71;31792;-76
2021/07/05 10:16:12;;;;;;;7.07;6.57;;;;;;;33.99;30.25;93744.23;828439;71;29177;-76
2021/07/05 10:31:09;;;;;;;7.63;7.13;;;;;;;34.08;30.36;93745.55;828769;71;29077;-77
2021/07/05 10:46:33;;;;;;;7.40;6.90;;;;;;;34.17;30.17;93732.56;834750;71;31674;-79
2021/07/05 11:01:16;;;;;;;7.90;7.30;;;;;;;33.11;31.36;93738.25;828184;71;31721;-76
2021/07/05 11:16:09;;;;;;;7.50;7.00;;;;;;;32.66;32.27;93730.13;828448;71;29149;-74
2021/07/05 11:31:23;;;;;;;6.87;6.37;;;;;;;32.77;31.98;93720.21;827573;71;31719;-75
2021/07/05 11:46:31;;;;;;;6.87;6.37;;;;;;;32.56;32.35;93688.46;828397;71;32419;-76
2021/07/05 12:01:13;;;;;;;7.33;6.70;;;;;;;32.58;32.80;93700.99;828780;71;28629;-76
2021/07/05 12:16:12;;;;;;;7.00;6.40;;;;;;;32.64;33.21;93711.42;835131;71;30979;-76
2021/07/05 12:31:09;;;;;;;7.23;6.57;;;;;;;32.43;33.08;93708.94;828235;71;29376;-75
2021/07/05 12:46:08;;;;;;;7.40;6.90;;;;;;;32.59;31.78;93705.98;834112;71;28737;-73
2021/07/05 13:01:40;;;;;;;6.93;6.40;;;;;;;32.09;32.62;93706.55;794020;74;31950;-75
2021/07/05 13:16:26;;;;;;;7.63;7.13;;;;;;;31.76;32.67;93710.29;828070;71;29167;-78
2021/07/05 13:31:33;;;;;;;6.93;6.27;;;;;;;31.20;33.70;93719.97;828031;71;31698;-78
2021/07/05 13:46:11;;;;;;;7.60;7.00;;;;;;;31.11;34.41;93715.99;828373;71;28663;-76
2021/07/05 14:01:15;;;;;;;7.50;6.90;;;;;;;31.13;34.19;93714.20;834089;71;29727;-76
2021/07/05 14:16:11;;;;;;;8.40;7.70;;;;;;;30.98;33.90;93725.36;834114;71;29276;-77
2021/07/05 14:31:14;;;;;;;7.63;6.93;;;;;;;30.85;34.67;93737.56;827668;71;31689;-76
2021/07/05 14:46:08;;;;;;;8.23;7.43;;;;;;;29.64;41.19;93792.72;834147;71;28867;-77
2021/07/05 15:16:08;;;;;;;9.53;8.73;;;;;;;27.89;51.84;93762.65;834194;71;29236;-78
2021/07/05 15:31:16;;;;;;;9.37;8.60;;;;;;;27.57;54.94;93766.73;835447;71;30762;-78
2021/07/05 15:46:17;;;;;;;11.23;10.13;;;;;;;27.53;56.51;93775.45;828218;71;30845;-77
2021/07/05 16:01:08;;;;;;;10.37;9.57;;;;;;;27.60;55.24;93796.73;828520;71;29651;-77
2021/07/05 16:16:08;;;;;;;12.87;11.87;;;;;;;27.66;53.36;93821.44;834258;71;27650;-77
2021/07/05 16:31:15;;;;;;;11.93;10.80;;;;;;;27.63;52.79;93837.67;827691;71;32792;-76
2021/07/05 16:46:10;;;;;;;12.90;11.80;;;;;;;27.62;54.26;93854.45;828224;71;30298;-76
2021/07/05 17:01:17;;;;;;;12.37;11.27;;;;;;;27.40;53.67;93872.17;828492;71;32809;-84
2021/07/05 17:16:11;;;;;;;12.83;11.70;;;;;;;27.10;54.68;123554.15;833445;71;30341;-83
2021/07/05 17:31:08;;;;;;;10.17;9.37;;;;;;;;;;829750;71;29788;-81
2021/07/05 17:46:08;;;;;;;19.83;17.97;;;;;;;26.48;52.55;93915.58;818109;71;29754;-80
2021/07/05 18:01:10;;;;;;;17.43;15.93;;;;;;;26.51;53.17;165660.58;828379;71;30711;-79
2021/07/05 18:16:23;;;;;;;9.50;8.70;;;;;;;25.73;55.59;93988.37;834203;71;32682;-85
2021/07/05 18:31:11;;;;;;;10.83;9.93;;;;;;;25.93;57.90;93987.83;828685;71;29785;-81
2021/07/05 18:46:17;;;;;;;11.77;10.60;;;;;;;26.17;60.14;94001.61;827429;71;32834;-79
2021/07/05 19:01:17;;;;;;;13.43;12.23;;;;;;;26.04;59.70;93956.23;828024;71;31441;-78
2021/07/05 19:16:14;;;;;;;11.70;10.60;;;;;;;26.04;59.67;94010.60;834458;71;32736;-82
2021/07/05 19:31:15;;;;;;;12.60;11.40;;;;;;;25.93;60.68;94024.91;827789;71;32867;-79
2021/07/05 19:46:19;;;;;;;11.70;10.60;;;;;;;25.62;61.73;94029.34;829336;70;32754;-82
2021/07/05 20:01:11;;;;;;;13.67;12.47;;;;;;;25.63;59.83;94026.06;834394;71;31399;-79
2021/07/05 20:16:14;;;;;;;11.03;10.03;;;;;;;25.58;58.34;94029.36;827682;71;32710;-80
2021/07/05 20:31:15;;;;;;;9.57;8.77;;;;;;;25.30;56.55;94031.66;820085;71;33365;-79
2021/07/05 20:46:22;;;;;;;10.17;9.27;;;;;;;24.34;60.74;94034.89;829038;71;32869;-78
2021/07/05 21:16:12;;;;;;;10.60;9.63;;;;;;;24.57;60.81;94035.05;822400;71;29815;-78
2021/07/05 21:31:17;;;;;;;10.47;9.60;;;;;;;25.08;59.63;94035.59;820651;71;32818;-79
2021/07/05 21:46:09;;;;;;;11.17;10.27;;;;;;;25.23;59.62;94029.62;822013;71;29846;-77
2021/07/05 22:01:15;;;;;;;9.30;8.53;;;;;;;25.34;58.04;94034.33;827693;71;32782;-78
2021/07/05 22:16:08;;;;;;;9.63;8.83;;;;;;;25.26;56.37;94031.50;828831;71;30469;-78
2021/07/05 22:31:10;;;;;;;8.87;8.20;;;;;;;25.22;56.95;94029.42;828377;71;30224;-78
2021/07/05 22:46:10;;;;;;;9.83;9.03;;;;;;;25.24;57.33;94044.56;834455;71;30356;-78
2021/07/05 23:01:17;;;;;;;10.60;9.60;;;;;;;25.22;57.27;94041.50;827436;71;32695;-76
2021/07/05 23:16:16;;;;;;;9.43;8.73;;;;;;;25.13;57.01;94039.23;827471;71;32854;-76
2021/07/05 23:31:12;;;;;;;9.70;8.90;;;;;;;25.12;55.83;94035.78;828322;71;32619;-77
2021/07/05 23:46:15;;;;;;;8.53;7.93;;;;;;;25.12;55.12;94019.67;827959;71;33133;-77
